createdAt,value
2023-03-29T00:00:21.981Z,100592.94
2023-03-29T00:02:49.489Z,100598.69
2023-03-29T00:05:19.580Z,100602.47
2023-03-29T00:07:46.986Z,100614.75
2023-03-29T00:10:14.666Z,100610.22
2023-03-29T00:12:42.045Z,100617.81
2023-03-29T00:15:09.706Z,100623.75
2023-03-29T00:17:37.328Z,100625.13
2023-03-29T00:20:06.217Z,100630.84
2023-03-29T00:22:33.773Z,100627.47
2023-03-29T00:25:01.102Z,100633.78
2023-03-29T00:27:28.445Z,100634.47
2023-03-29T00:29:56.494Z,100627.50
2023-03-29T00:32:23.977Z,100636.31
2023-03-29T00:34:51.906Z,100638.03
2023-03-29T00:37:19.485Z,100634.47
2023-03-29T00:39:46.921Z,100628.38
2023-03-29T00:42:16.640Z,100634.69
2023-03-29T00:45:02.166Z,100637.09
2023-03-29T00:47:43.768Z,100638.41
2023-03-29T00:50:28.454Z,100635.91
2023-03-29T00:53:10.608Z,100644.84
2023-03-29T00:55:43.221Z,100635.16
2023-03-29T00:58:15.694Z,100642.22
2023-03-29T01:01:07.490Z,100638.88
2023-03-29T01:03:42.618Z,100643.03
2023-03-29T01:06:13.153Z,100641.66
2023-03-29T01:08:49.768Z,100641.31
2023-03-29T01:11:22.610Z,100634.94
2023-03-29T01:14:02.961Z,100640.69
2023-03-29T01:16:32.455Z,100640.78
2023-03-29T01:19:00.114Z,100638.19
2023-03-29T01:21:52.948Z,100646.03
2023-03-29T01:24:32.320Z,100636.31
2023-03-29T01:27:02.511Z,100643.47
2023-03-29T01:29:46.887Z,100635.81
2023-03-29T01:32:23.849Z,100644.44
2023-03-29T01:34:58.410Z,100651.34
2023-03-29T01:37:34.549Z,100648.00
2023-03-29T01:40:02.232Z,100649.63
2023-03-29T01:42:49.294Z,100651.72
2023-03-29T01:45:25.689Z,100649.53
2023-03-29T01:48:23.026Z,100650.06
2023-03-29T01:50:53.524Z,100652.59
2023-03-29T01:53:32.628Z,100647.19
2023-03-29T01:56:06.913Z,100648.00
2023-03-29T01:58:38.750Z,100643.78
2023-03-29T02:01:09.435Z,100642.31
2023-03-29T02:03:41.740Z,100645.47
2023-03-29T02:06:17.240Z,100643.56
2023-03-29T02:08:46.086Z,100647.38
2023-03-29T02:11:14.412Z,100652.31
2023-03-29T02:13:41.747Z,100655.28
2023-03-29T02:16:11.508Z,100654.56
2023-03-29T02:18:46.021Z,100654.03
2023-03-29T02:21:32.661Z,100648.41
2023-03-29T02:24:05.219Z,100655.53
2023-03-29T02:26:32.810Z,100660.59
2023-03-29T02:29:00.509Z,100656.25
2023-03-29T02:31:27.803Z,100668.00
2023-03-29T02:34:09.457Z,100667.06
2023-03-29T02:36:50.690Z,100673.53
2023-03-29T02:39:19.613Z,100674.97
2023-03-29T02:41:50.444Z,100681.44
2023-03-29T02:44:22.430Z,100676.22
2023-03-29T02:46:53.702Z,100680.53
2023-03-29T02:49:21.314Z,100674.09
2023-03-29T02:51:52.617Z,100672.16
2023-03-29T02:54:23.443Z,100674.06
2023-03-29T02:56:59.296Z,100678.84
2023-03-29T02:59:27.229Z,100685.00
2023-03-29T03:01:54.542Z,100687.38
2023-03-29T03:04:22.237Z,100681.78
2023-03-29T03:06:49.824Z,100689.25
2023-03-29T03:09:18.022Z,100683.78
2023-03-29T03:11:45.409Z,100684.22
2023-03-29T03:14:12.859Z,100686.97
2023-03-29T03:16:40.188Z,100694.53
2023-03-29T03:19:07.973Z,100694.19
2023-03-29T03:21:36.284Z,100701.13
2023-03-29T03:24:04.789Z,100694.00
2023-03-29T03:26:32.132Z,100706.84
2023-03-29T03:28:59.613Z,100701.94
2023-03-29T03:31:27.128Z,100706.06
2023-03-29T03:33:54.488Z,100706.25
2023-03-29T03:36:21.796Z,100703.09
2023-03-29T03:38:49.097Z,100713.78
2023-03-29T03:41:16.639Z,100704.78
2023-03-29T03:43:47.194Z,100707.69
2023-03-29T03:46:17.878Z,100710.09
2023-03-29T03:48:46.635Z,100704.63
2023-03-29T03:51:15.063Z,100707.84
2023-03-29T03:53:42.977Z,100700.81
2023-03-29T03:56:11.109Z,100716.00
2023-03-29T03:58:39.396Z,100709.34
2023-03-29T04:01:08.300Z,100710.63
2023-03-29T04:03:37.508Z,100706.78
2023-03-29T04:06:06.636Z,100710.03
2023-03-29T04:08:34.912Z,100710.22
2023-03-29T04:11:03.026Z,100712.44
2023-03-29T04:13:31.145Z,100710.47
2023-03-29T04:16:01.387Z,100711.78
2023-03-29T04:18:29.329Z,100716.59
2023-03-29T04:20:57.336Z,100722.28
2023-03-29T04:23:24.758Z,100722.88
2023-03-29T04:25:54.999Z,100720.94
2023-03-29T04:28:22.303Z,100730.78
2023-03-29T04:30:50.066Z,100722.59
2023-03-29T04:33:17.558Z,100727.56
2023-03-29T04:35:44.980Z,100724.84
2023-03-29T04:38:12.618Z,100722.00
2023-03-29T04:40:39.940Z,100732.44
2023-03-29T04:43:07.479Z,100726.66
2023-03-29T04:45:34.916Z,100729.31
2023-03-29T04:48:02.357Z,100725.13
2023-03-29T04:50:29.926Z,100736.81
2023-03-29T04:52:57.307Z,100741.06
2023-03-29T04:55:24.662Z,100738.94
2023-03-29T04:57:52.649Z,100743.72
2023-03-29T05:00:20.432Z,100741.41
2023-03-29T05:02:48.752Z,100746.97
2023-03-29T05:05:16.656Z,100753.50
2023-03-29T05:07:51.139Z,100756.22
2023-03-29T05:10:19.006Z,100756.00
2023-03-29T05:12:47.698Z,100756.47
2023-03-29T05:15:15.482Z,100754.03
2023-03-29T05:17:43.060Z,100761.09
2023-03-29T05:20:10.672Z,100765.59
2023-03-29T05:22:38.087Z,100769.63
2023-03-29T05:25:06.465Z,100770.53
2023-03-29T05:27:34.914Z,100766.88
2023-03-29T05:30:02.400Z,100774.50
2023-03-29T05:32:30.479Z,100776.38
2023-03-29T05:34:57.971Z,100778.97
2023-03-29T05:37:25.644Z,100774.38
2023-03-29T05:39:52.947Z,100785.94
2023-03-29T05:42:21.999Z,100783.03
2023-03-29T05:44:50.677Z,100788.22
2023-03-29T05:47:19.966Z,100783.75
2023-03-29T05:49:47.313Z,100782.13
2023-03-29T05:52:14.947Z,100790.41
2023-03-29T05:54:42.362Z,100789.28
2023-03-29T05:57:09.699Z,100789.72
2023-03-29T05:59:37.125Z,100786.00
2023-03-29T06:02:05.184Z,100791.66
2023-03-29T06:04:33.601Z,100786.75
2023-03-29T06:07:01.043Z,100786.63
2023-03-29T06:09:28.418Z,100792.75
2023-03-29T06:11:55.664Z,100788.91
2023-03-29T06:14:23.236Z,100783.06
2023-03-29T06:16:51.277Z,100791.63
2023-03-29T06:19:20.302Z,100795.41
2023-03-29T06:21:47.773Z,100800.69
2023-03-29T06:24:15.141Z,100795.22
2023-03-29T06:26:43.732Z,100802.63
2023-03-29T06:29:11.200Z,100801.72
2023-03-29T06:31:38.615Z,100803.84
2023-03-29T06:34:05.971Z,100796.44
2023-03-29T06:36:33.645Z,100800.16
2023-03-29T06:39:01.037Z,100803.19
2023-03-29T06:41:28.913Z,100803.78
2023-03-29T06:43:56.331Z,100799.78
2023-03-29T06:46:24.353Z,100807.06
2023-03-29T06:48:51.982Z,100811.38
2023-03-29T06:51:22.686Z,100809.06
2023-03-29T06:53:51.484Z,100803.75
2023-03-29T06:56:19.656Z,100806.59
2023-03-29T06:58:47.148Z,100811.56
2023-03-29T07:01:14.692Z,100817.97
2023-03-29T07:03:43.656Z,100819.38
2023-03-29T07:06:13.385Z,100817.22
2023-03-29T07:08:41.397Z,100820.06
2023-03-29T07:11:10.778Z,100816.34
2023-03-29T07:13:42.035Z,100810.53
2023-03-29T07:16:10.714Z,100809.69
2023-03-29T07:18:42.825Z,100812.00
2023-03-29T07:21:12.463Z,100805.06
2023-03-29T07:23:40.227Z,100810.97
2023-03-29T07:26:08.676Z,100811.25
2023-03-29T07:28:36.578Z,100806.91
2023-03-29T07:31:10.409Z,100816.34
2023-03-29T07:33:39.420Z,100813.09
2023-03-29T07:36:08.220Z,100804.38
2023-03-29T07:38:35.742Z,100810.09
2023-03-29T07:41:05.702Z,100814.94
2023-03-29T07:43:33.285Z,100801.34
2023-03-29T07:46:02.189Z,100788.50
2023-03-29T07:48:30.545Z,100792.25
2023-03-29T07:50:58.011Z,100799.09
2023-03-29T07:53:25.403Z,100807.50
2023-03-29T07:55:52.818Z,100806.94
2023-03-29T07:58:20.402Z,100813.19
2023-03-29T08:00:47.824Z,100810.69
2023-03-29T08:03:15.663Z,100801.53
2023-03-29T08:05:43.362Z,100807.69
2023-03-29T08:08:11.082Z,100803.97
2023-03-29T08:10:38.521Z,100804.00
2023-03-29T08:13:08.237Z,100810.34
2023-03-29T08:15:36.952Z,100801.81
2023-03-29T08:18:04.524Z,100808.63
2023-03-29T08:20:32.177Z,100797.97
2023-03-29T08:22:59.550Z,100800.47
2023-03-29T08:25:26.915Z,100804.34
2023-03-29T08:27:54.411Z,100804.03
2023-03-29T08:30:22.063Z,100802.09
2023-03-29T08:32:51.630Z,100798.88
2023-03-29T08:35:22.214Z,100806.94
2023-03-29T08:37:49.690Z,100806.34
2023-03-29T08:40:21.633Z,100799.53
2023-03-29T08:43:24.771Z,100806.03
2023-03-29T08:46:01.197Z,100809.72
2023-03-29T08:48:45.953Z,100803.75
2023-03-29T08:51:28.496Z,100808.94
2023-03-29T08:54:04.277Z,100798.06
2023-03-29T08:56:35.871Z,100794.34
2023-03-29T08:59:03.700Z,100787.78
2023-03-29T09:01:34.642Z,100792.69
2023-03-29T09:04:13.939Z,100795.91
2023-03-29T09:06:41.269Z,100800.50
2023-03-29T09:09:15.758Z,100796.22
2023-03-29T09:12:12.481Z,100784.66
2023-03-29T09:14:45.719Z,100790.84
2023-03-29T09:17:37.902Z,100778.94
2023-03-29T09:20:05.395Z,100792.06
2023-03-29T09:22:56.791Z,100789.47
2023-03-29T09:25:38.346Z,100792.97
2023-03-29T09:28:25.425Z,100800.34
2023-03-29T09:31:02.633Z,100794.84
2023-03-29T09:33:34.187Z,100798.84
2023-03-29T09:36:08.992Z,100800.59
2023-03-29T09:38:43.016Z,100799.09
2023-03-29T09:41:31.950Z,100797.34
2023-03-29T09:44:05.779Z,100788.38
2023-03-29T09:46:42.122Z,100789.44
2023-03-29T09:49:18.637Z,100790.03
2023-03-29T09:51:50.035Z,100788.91
2023-03-29T09:54:17.285Z,100792.69
2023-03-29T09:56:44.735Z,100789.75
2023-03-29T09:59:12.357Z,100791.66
2023-03-29T10:01:42.925Z,100784.38
2023-03-29T10:04:12.211Z,100780.47
2023-03-29T10:06:46.066Z,100782.69
2023-03-29T10:09:22.624Z,100762.81
2023-03-29T10:11:56.644Z,100780.63
2023-03-29T10:14:35.710Z,100765.44
2023-03-29T10:17:11.087Z,100774.59
2023-03-29T10:19:38.458Z,100770.56
2023-03-29T10:22:14.578Z,100763.09
2023-03-29T10:24:50.854Z,100777.63
2023-03-29T10:27:24.817Z,100773.94
2023-03-29T10:29:54.229Z,100758.78
2023-03-29T10:32:34.765Z,100765.72
2023-03-29T10:35:23.866Z,100766.06
2023-03-29T10:37:53.485Z,100769.31
2023-03-29T10:40:34.566Z,100764.63
2023-03-29T10:43:13.611Z,100773.31
2023-03-29T10:45:41.327Z,100761.47
2023-03-29T10:48:16.348Z,100769.88
2023-03-29T10:50:50.198Z,100762.63
2023-03-29T10:53:27.001Z,100754.88
2023-03-29T10:56:08.303Z,100755.69
2023-03-29T10:59:06.794Z,100749.97
2023-03-29T11:02:12.044Z,100758.31
2023-03-29T11:04:43.111Z,100753.03
2023-03-29T11:07:21.619Z,100762.53
2023-03-29T11:10:26.153Z,100757.63
2023-03-29T11:13:08.221Z,100747.56
2023-03-29T11:15:44.701Z,100738.50
2023-03-29T11:18:43.069Z,100734.88
2023-03-29T11:21:31.693Z,100744.38
2023-03-29T11:24:26.633Z,100737.59
2023-03-29T11:27:22.547Z,100736.81
2023-03-29T11:30:05.029Z,100739.25
2023-03-29T11:33:15.079Z,100730.72
2023-03-29T11:35:53.965Z,100733.63
2023-03-29T11:38:27.243Z,100734.75
2023-03-29T11:41:00.571Z,100729.34
2023-03-29T11:43:34.138Z,100738.22
2023-03-29T11:46:18.399Z,100732.66
2023-03-29T11:49:04.330Z,100725.44
2023-03-29T11:51:41.426Z,100735.28
2023-03-29T11:54:25.261Z,100721.88
2023-03-29T11:57:30.700Z,100722.94
2023-03-29T12:00:07.062Z,100729.69
2023-03-29T12:02:42.324Z,100722.63
2023-03-29T12:05:18.708Z,100715.47
2023-03-29T12:07:53.625Z,100719.78
2023-03-29T12:10:26.836Z,100733.41
2023-03-29T12:13:05.390Z,100719.78
2023-03-29T12:15:41.519Z,100719.22
2023-03-29T12:18:24.976Z,100710.94
2023-03-29T12:20:59.993Z,100715.13
2023-03-29T12:23:30.795Z,100715.13
2023-03-29T12:26:22.835Z,100703.97
2023-03-29T12:29:28.328Z,100709.31
2023-03-29T12:32:00.323Z,100717.59
2023-03-29T12:35:01.621Z,100712.81
2023-03-29T12:38:06.682Z,100711.44
2023-03-29T12:40:43.811Z,100721.31
2023-03-29T12:43:27.321Z,100714.31
2023-03-29T12:46:01.430Z,100709.59
2023-03-29T12:48:30.417Z,100707.19
2023-03-29T12:51:03.709Z,100712.28
2023-03-29T12:54:00.121Z,100712.72
2023-03-29T12:57:01.568Z,100710.66
2023-03-29T12:59:43.932Z,100713.34
2023-03-29T13:02:14.514Z,100704.22
2023-03-29T13:04:42.485Z,100711.16
2023-03-29T13:07:24.534Z,100710.09
2023-03-29T13:09:53.286Z,100699.38
2023-03-29T13:12:43.460Z,100686.00
2023-03-29T13:15:23.749Z,100695.09
2023-03-29T13:17:54.088Z,100710.94
2023-03-29T13:21:17.645Z,100695.91
2023-03-29T13:23:56.716Z,100700.50
2023-03-29T13:26:41.828Z,100697.28
2023-03-29T13:29:47.781Z,100701.31
2023-03-29T13:32:37.331Z,100701.00
2023-03-29T13:35:13.840Z,100712.28
2023-03-29T13:37:55.796Z,100717.06
2023-03-29T13:40:41.431Z,100709.34
2023-03-29T13:43:17.809Z,100704.25
2023-03-29T13:46:11.938Z,100714.34
2023-03-29T13:48:39.327Z,100707.66
2023-03-29T13:51:13.106Z,100702.31
2023-03-29T13:53:49.456Z,100693.47
2023-03-29T13:56:29.731Z,100698.56
2023-03-29T13:59:05.376Z,100709.00
2023-03-29T14:01:39.476Z,100701.53
2023-03-29T14:04:14.593Z,100702.56
2023-03-29T14:06:45.465Z,100707.38
2023-03-29T14:09:16.577Z,100708.44
2023-03-29T14:11:46.372Z,100713.28
2023-03-29T14:14:14.292Z,100707.94
2023-03-29T14:16:42.684Z,100710.66
2023-03-29T14:19:17.001Z,100698.31
2023-03-29T14:21:45.022Z,100708.22
2023-03-29T14:24:19.896Z,100725.88
2023-03-29T14:26:48.066Z,100711.09
2023-03-29T14:29:15.522Z,100718.63
2023-03-29T14:31:43.114Z,100704.25
2023-03-29T14:34:18.792Z,100710.59
2023-03-29T14:36:48.758Z,100706.59
2023-03-29T14:39:20.033Z,100716.25
2023-03-29T14:41:51.999Z,100716.25
2023-03-29T14:44:22.332Z,100714.34
2023-03-29T14:46:49.849Z,100713.84
2023-03-29T14:49:19.702Z,100712.47
2023-03-29T14:51:48.119Z,100715.97
2023-03-29T14:54:32.066Z,100712.97
2023-03-29T14:57:03.474Z,100716.13
2023-03-29T14:59:36.962Z,100716.41
2023-03-29T15:02:21.678Z,100727.72
2023-03-29T15:05:07.096Z,100716.47
2023-03-29T15:07:38.352Z,100717.53
2023-03-29T15:10:06.809Z,100719.66
2023-03-29T15:12:36.007Z,100719.94
2023-03-29T15:15:03.586Z,100719.66
2023-03-29T15:17:50.910Z,100712.91
2023-03-29T15:20:22.108Z,100716.38
2023-03-29T15:23:15.454Z,100724.63
2023-03-29T15:25:57.158Z,100722.09
2023-03-29T15:28:29.400Z,100720.44
2023-03-29T15:31:14.439Z,100723.13
2023-03-29T15:33:42.388Z,100729.78
2023-03-29T15:36:12.414Z,100725.72
2023-03-29T15:38:44.559Z,100724.91
2023-03-29T15:41:15.939Z,100726.34
2023-03-29T15:43:43.506Z,100726.59
2023-03-29T15:46:13.182Z,100740.78
2023-03-29T15:48:41.304Z,100736.47
2023-03-29T15:51:12.212Z,100732.47
2023-03-29T15:53:40.225Z,100740.88
2023-03-29T15:56:09.991Z,100735.69
2023-03-29T15:58:41.057Z,100745.44
2023-03-29T16:01:37.129Z,100744.97
2023-03-29T16:04:12.046Z,100740.63
2023-03-29T16:06:39.815Z,100743.81
2023-03-29T16:09:07.936Z,100738.13
2023-03-29T16:11:35.452Z,100745.34
2023-03-29T16:14:07.085Z,100753.41
2023-03-29T16:16:37.299Z,100744.84
2023-03-29T16:19:04.615Z,100741.09
2023-03-29T16:21:31.973Z,100756.78
2023-03-29T16:23:59.324Z,100752.53
2023-03-29T16:26:26.741Z,100753.16
2023-03-29T16:28:54.062Z,100753.56
2023-03-29T16:31:21.416Z,100765.88
2023-03-29T16:33:48.911Z,100758.81
2023-03-29T16:36:16.264Z,100761.94
2023-03-29T16:38:43.569Z,100765.31
2023-03-29T16:41:15.068Z,100773.78
2023-03-29T16:43:43.380Z,100778.69
2023-03-29T16:46:11.690Z,100783.34
2023-03-29T16:48:39.244Z,100775.50
2023-03-29T16:51:06.898Z,100782.66
2023-03-29T16:53:34.555Z,100781.88
2023-03-29T16:56:04.155Z,100787.38
2023-03-29T16:58:31.733Z,100789.38
2023-03-29T17:01:07.190Z,100795.84
2023-03-29T17:03:52.359Z,100798.69
2023-03-29T17:06:37.546Z,100804.22
2023-03-29T17:09:22.790Z,100802.00
2023-03-29T17:12:08.117Z,100812.06
2023-03-29T17:14:53.451Z,100813.78
2023-03-29T17:17:38.983Z,100825.56
2023-03-29T17:20:27.120Z,100821.41
2023-03-29T17:23:12.605Z,100822.06
2023-03-29T17:25:57.565Z,100836.47
2023-03-29T17:28:42.879Z,100831.97
2023-03-29T17:31:28.166Z,100832.00
2023-03-29T17:34:14.528Z,100834.50
2023-03-29T17:37:00.127Z,100833.75
2023-03-29T17:39:45.060Z,100838.47
2023-03-29T17:42:30.485Z,100846.34
2023-03-29T17:45:16.007Z,100850.50
2023-03-29T17:48:02.391Z,100854.91
2023-03-29T17:50:49.831Z,100866.03
2023-03-29T17:53:34.896Z,100865.34
2023-03-29T17:56:20.937Z,100866.13
2023-03-29T17:59:06.568Z,100873.53
2023-03-29T18:01:51.637Z,100890.38
2023-03-29T18:04:37.126Z,100881.41
2023-03-29T18:07:23.111Z,100882.53
2023-03-29T18:10:08.672Z,100887.88
2023-03-29T18:12:57.039Z,100901.69
2023-03-29T18:15:42.642Z,100894.00
2023-03-29T18:18:28.170Z,100897.44
2023-03-29T18:21:15.786Z,100904.94
2023-03-29T18:24:00.942Z,100906.25
2023-03-29T18:26:52.620Z,100911.56
2023-03-29T18:29:44.684Z,100909.50
2023-03-29T18:32:36.788Z,100907.88
2023-03-29T18:35:28.652Z,100915.75
2023-03-29T18:38:22.128Z,100914.13
2023-03-29T18:41:14.184Z,100923.06
2023-03-29T18:44:05.816Z,100921.59
2023-03-29T18:46:57.526Z,100924.13
2023-03-29T18:49:49.528Z,100928.94
2023-03-29T18:52:41.853Z,100930.38
2023-03-29T18:55:33.648Z,100939.19
2023-03-29T18:58:25.530Z,100940.44
2023-03-29T19:01:17.777Z,100936.41
2023-03-29T19:04:09.835Z,100932.13
2023-03-29T19:07:01.449Z,100936.31
2023-03-29T19:09:53.894Z,100945.41
2023-03-29T19:12:49.771Z,100931.31
2023-03-29T19:15:42.083Z,100929.56
2023-03-29T19:18:33.853Z,100934.88
2023-03-29T19:21:28.215Z,100931.53
2023-03-29T19:24:20.079Z,100934.09
2023-03-29T19:27:12.675Z,100931.19
2023-03-29T19:30:06.136Z,100928.16
2023-03-29T19:32:57.782Z,100930.81
2023-03-29T19:35:50.942Z,100931.41
2023-03-29T19:38:42.693Z,100928.28
2023-03-29T19:41:34.700Z,100935.13
2023-03-29T19:44:26.592Z,100931.88
2023-03-29T19:47:19.330Z,100934.63
2023-03-29T19:50:10.913Z,100934.06
2023-03-29T19:53:02.614Z,100923.16
2023-03-29T19:55:54.977Z,100929.13
2023-03-29T19:58:46.516Z,100919.78
2023-03-29T20:01:38.749Z,100924.06
2023-03-29T20:04:30.833Z,100934.50
2023-03-29T20:07:22.635Z,100945.72
2023-03-29T20:10:14.895Z,100954.16
2023-03-29T20:13:06.875Z,100940.56
2023-03-29T20:15:58.744Z,100937.03
2023-03-29T20:18:50.725Z,100942.94
2023-03-29T20:21:44.027Z,100940.84
2023-03-29T20:24:35.754Z,100947.63
2023-03-29T20:27:27.749Z,100944.56
2023-03-29T20:30:19.427Z,100946.22
2023-03-29T20:33:11.636Z,100955.59
2023-03-29T20:36:04.070Z,100952.72
2023-03-29T20:38:55.583Z,100946.81
2023-03-29T20:41:47.346Z,100942.84
2023-03-29T20:44:38.671Z,100941.72
2023-03-29T20:47:33.305Z,100934.50
2023-03-29T20:50:25.697Z,100931.75
2023-03-29T20:53:17.797Z,100932.91
2023-03-29T20:56:09.548Z,100929.50
2023-03-29T20:59:01.795Z,100934.44
2023-03-29T21:01:53.736Z,100932.00
2023-03-29T21:04:50.125Z,100932.09
2023-03-29T21:07:42.086Z,100930.53
2023-03-29T21:10:33.772Z,100931.88
2023-03-29T21:13:25.614Z,100932.06
2023-03-29T21:16:17.388Z,100938.22
2023-03-29T21:19:10.134Z,100934.31
2023-03-29T21:22:01.996Z,100940.91
2023-03-29T21:24:54.073Z,100951.81
2023-03-29T21:27:46.382Z,100944.22
2023-03-29T21:30:37.804Z,100951.47
2023-03-29T21:33:30.038Z,100955.59
2023-03-29T21:36:22.069Z,100963.25
2023-03-29T21:39:08.209Z,100962.94
2023-03-29T21:41:35.689Z,100955.59
2023-03-29T21:44:03.306Z,100954.00
2023-03-29T21:46:30.844Z,100956.34
2023-03-29T21:48:58.363Z,100951.56
2023-03-29T21:51:25.659Z,100953.44
2023-03-29T21:53:53.165Z,100951.22
2023-03-29T21:56:20.639Z,100952.13
2023-03-29T21:58:47.975Z,100953.75
2023-03-29T22:01:15.343Z,100949.84
2023-03-29T22:03:42.863Z,100948.69
2023-03-29T22:06:13.409Z,100941.50
2023-03-29T22:08:41.521Z,100945.06
2023-03-29T22:11:12.308Z,100949.19
2023-03-29T22:13:40.924Z,100947.97
2023-03-29T22:16:09.924Z,100942.13
2023-03-29T22:18:37.868Z,100952.47
2023-03-29T22:21:05.416Z,100953.16
2023-03-29T22:23:32.720Z,100948.47
2023-03-29T22:26:05.288Z,100944.75
2023-03-29T22:28:33.830Z,100944.97
2023-03-29T22:31:05.805Z,100938.81
2023-03-29T22:33:35.087Z,100937.81
2023-03-29T22:36:11.208Z,100937.03
2023-03-29T22:38:38.583Z,100940.44
2023-03-29T22:41:06.233Z,100944.97
2023-03-29T22:43:34.115Z,100945.88
2023-03-29T22:46:01.561Z,100939.63
2023-03-29T22:48:29.052Z,100951.94
2023-03-29T22:50:56.421Z,100940.94
2023-03-29T22:53:23.786Z,100938.91
2023-03-29T22:55:51.309Z,100937.28
2023-03-29T22:58:19.170Z,100938.75
2023-03-29T23:00:46.936Z,100933.19
2023-03-29T23:03:14.478Z,100937.09
2023-03-29T23:05:41.888Z,100936.50
2023-03-29T23:08:09.233Z,100947.06
2023-03-29T23:10:36.492Z,100947.50
2023-03-29T23:13:04.372Z,100939.78
2023-03-29T23:15:32.397Z,100950.97
2023-03-29T23:17:59.821Z,100948.50
2023-03-29T23:20:27.666Z,100946.69
2023-03-29T23:22:55.064Z,100945.84
2023-03-29T23:25:22.375Z,100946.47
2023-03-29T23:27:49.733Z,100947.06
2023-03-29T23:30:18.978Z,100949.13
2023-03-29T23:32:46.619Z,100954.59
2023-03-29T23:35:14.868Z,100946.69
2023-03-29T23:37:42.898Z,100954.41
2023-03-29T23:40:11.267Z,100956.06
2023-03-29T23:42:38.921Z,100958.06
2023-03-29T23:45:08.488Z,100953.81
2023-03-29T23:47:35.825Z,100961.72
2023-03-29T23:50:04.121Z,100960.91
2023-03-29T23:52:32.197Z,100971.91
2023-03-29T23:55:00.199Z,100974.94
2023-03-29T23:57:28.237Z,100974.13
2023-03-29T23:59:56.581Z,100976.75
